Hlavní strana
METAR-TAF:

METAR-TAF

Letiště :

Tunis, Tunisko

zeměpisná šířka: 36-50N, zeměpisná délka: 010-14E, výška: 3 m

Aktuální stav počasí

Zpráva byla vytvořena před 23 minutami, v 02:00 UTC
Západojihozápadní vítr 2 kt
Teplota 11°C
Vlhkost vzduchu 87%
Tlak 1020 hPa
Viditelnost 10 km a více
Skoro jasno ve výšce 3300 ft

METAR: DTTA 060200Z 24002KT 9999 FEW033 11/09 Q1020

Čas: 03:23 (02:23 UTC)

Předpověď počasí

Zpráva byla vytvořena před 3 hodinami a 23 minutami, v 23:00 UTC
Předpověď platná od 06 v 00 UTC do 06 v 24 UTC
Západojihozápadní vítr 4 kt
Viditelnost 10 km a více
Skoro jasno ve výšce 3000 ft

TAF: DTTA 052300Z 0600/0624 25004KT 9999 FEW030

Stav a předpovědi počasí z více než 4 000 letišť (zprávy METAR a TAF).

Červené a žluté tečky na mapě představují dostupné meteorologické stanice.

Když kurzor umístíte na tečku, zobrazí se název stanice.

Pak kliknutím zobrazíte stav a předpověď počasí.

Chcete-li změnit mapu, kliknutím na zelené tlačítko se znaménkem +mapu přiblížíte, kliknutím na zelené tlačítko se znaménkem – mapu oddálíte a kliknutím na zelené šipky přejdete na sousední mapy.


METAR-TAF: